sensor_id;sensor_type;location;lat;lon;timestamp;temperature;humidity
64705;DHT22;51131;52.298;13.686;2023-01-05T00:02:04;18.10;62.50
64705;DHT22;51131;52.298;13.686;2023-01-05T00:04:30;18.00;62.60
64705;DHT22;51131;52.298;13.686;2023-01-05T00:06:57;18.10;62.70
64705;DHT22;51131;52.298;13.686;2023-01-05T00:09:23;18.10;62.60
64705;DHT22;51131;52.298;13.686;2023-01-05T00:11:50;18.10;62.50
64705;DHT22;51131;52.298;13.686;2023-01-05T00:14:35;18.10;62.70
64705;DHT22;51131;52.298;13.686;2023-01-05T00:17:21;18.00;62.50
64705;DHT22;51131;52.298;13.686;2023-01-05T00:20:14;18.00;62.50
64705;DHT22;51131;52.298;13.686;2023-01-05T00:22:59;18.00;62.70
64705;DHT22;51131;52.298;13.686;2023-01-05T00:25:27;18.10;62.70
64705;DHT22;51131;52.298;13.686;2023-01-05T00:27:54;18.00;62.50
64705;DHT22;51131;52.298;13.686;2023-01-05T00:30:22;18.00;62.50
64705;DHT22;51131;52.298;13.686;2023-01-05T00:32:49;18.50;63.30
64705;DHT22;51131;52.298;13.686;2023-01-05T00:35:16;18.00;62.50
64705;DHT22;51131;52.298;13.686;2023-01-05T00:37:43;18.00;62.40
64705;DHT22;51131;52.298;13.686;2023-01-05T00:40:11;18.00;62.50
64705;DHT22;51131;52.298;13.686;2023-01-05T00:42:38;18.00;62.40
64705;DHT22;51131;52.298;13.686;2023-01-05T00:45:05;18.10;62.70
64705;DHT22;51131;52.298;13.686;2023-01-05T00:47:32;18.00;62.50
64705;DHT22;51131;52.298;13.686;2023-01-05T00:49:59;18.70;63.70
64705;DHT22;51131;52.298;13.686;2023-01-05T00:52:25;18.10;62.60
64705;DHT22;51131;52.298;13.686;2023-01-05T00:54:52;19.00;63.30
64705;DHT22;51131;52.298;13.686;2023-01-05T00:57:19;18.00;62.40
64705;DHT22;51131;52.298;13.686;2023-01-05T00:59:45;18.20;63.10
64705;DHT22;51131;52.298;13.686;2023-01-05T01:02:12;18.60;63.00
64705;DHT22;51131;52.298;13.686;2023-01-05T01:04:39;18.10;62.50
64705;DHT22;51131;52.298;13.686;2023-01-05T01:07:05;18.10;62.40
64705;DHT22;51131;52.298;13.686;2023-01-05T01:09:32;18.10;62.40
64705;DHT22;51131;52.298;13.686;2023-01-05T01:11:59;18.10;62.30
64705;DHT22;51131;52.298;13.686;2023-01-05T01:14:26;18.90;63.10
64705;DHT22;51131;52.298;13.686;2023-01-05T01:16:53;18.10;62.40
64705;DHT22;51131;52.298;13.686;2023-01-05T01:19:21;18.80;63.20
64705;DHT22;51131;52.298;13.686;2023-01-05T01:21:47;18.10;62.50
64705;DHT22;51131;52.298;13.686;2023-01-05T01:24:15;18.10;62.30
64705;DHT22;51131;52.298;13.686;2023-01-05T01:26:42;18.00;62.10
64705;DHT22;51131;52.298;13.686;2023-01-05T01:29:09;18.00;62.20
64705;DHT22;51131;52.298;13.686;2023-01-05T01:31:36;18.00;62.20
64705;DHT22;51131;52.298;13.686;2023-01-05T01:34:03;18.00;62.30
64705;DHT22;51131;52.298;13.686;2023-01-05T01:36:29;18.00;62.20
64705;DHT22;51131;52.298;13.686;2023-01-05T01:38:56;18.00;62.20
64705;DHT22;51131;52.298;13.686;2023-01-05T01:41:22;18.00;62.20
64705;DHT22;51131;52.298;13.686;2023-01-05T01:43:53;18.20;62.60
64705;DHT22;51131;52.298;13.686;2023-01-05T01:46:20;18.00;62.40
64705;DHT22;51131;52.298;13.686;2023-01-05T01:49:01;18.00;62.30
64705;DHT22;51131;52.298;13.686;2023-01-05T01:54:00;18.00;62.30
64705;DHT22;51131;52.298;13.686;2023-01-05T01:56:29;18.00;62.40
64705;DHT22;51131;52.298;13.686;2023-01-05T01:58:58;18.00;62.40
64705;DHT22;51131;52.298;13.686;2023-01-05T02:01:24;18.00;62.40
64705;DHT22;51131;52.298;13.686;2023-01-05T02:03:51;18.00;62.20
64705;DHT22;51131;52.298;13.686;2023-01-05T02:06:18;18.00;62.20
64705;DHT22;51131;52.298;13.686;2023-01-05T02:08:44;18.10;62.40
64705;DHT22;51131;52.298;13.686;2023-01-05T02:11:29;18.00;62.50
64705;DHT22;51131;52.298;13.686;2023-01-05T02:19:18;18.00;62.40
64705;DHT22;51131;52.298;13.686;2023-01-05T02:27:05;18.00;62.50
64705;DHT22;51131;52.298;13.686;2023-01-05T02:29:40;18.00;62.50
64705;DHT22;51131;52.298;13.686;2023-01-05T02:34:47;18.00;62.40
64705;DHT22;51131;52.298;13.686;2023-01-05T02:37:21;18.00;62.30
64705;DHT22;51131;52.298;13.686;2023-01-05T02:40:00;18.00;62.50
64705;DHT22;51131;52.298;13.686;2023-01-05T02:42:28;18.00;62.50
64705;DHT22;51131;52.298;13.686;2023-01-05T02:45:04;18.00;62.50
64705;DHT22;51131;52.298;13.686;2023-01-05T02:47:36;18.00;62.40
64705;DHT22;51131;52.298;13.686;2023-01-05T02:50:22;18.00;62.40
64705;DHT22;51131;52.298;13.686;2023-01-05T02:52:52;18.00;62.30
64705;DHT22;51131;52.298;13.686;2023-01-05T02:55:23;18.20;62.50
64705;DHT22;51131;52.298;13.686;2023-01-05T02:57:53;18.10;62.30
64705;DHT22;51131;52.298;13.686;2023-01-05T03:00:35;18.00;62.30
64705;DHT22;51131;52.298;13.686;2023-01-05T03:03:09;18.00;62.30
64705;DHT22;51131;52.298;13.686;2023-01-05T03:05:39;18.00;62.40
64705;DHT22;51131;52.298;13.686;2023-01-05T03:08:08;18.00;62.10
64705;DHT22;51131;52.298;13.686;2023-01-05T03:13:39;18.00;62.40
64705;DHT22;51131;52.298;13.686;2023-01-05T03:16:12;18.00;62.10
64705;DHT22;51131;52.298;13.686;2023-01-05T03:18:40;18.00;62.30
64705;DHT22;51131;52.298;13.686;2023-01-05T03:21:26;18.00;62.20
64705;DHT22;51131;52.298;13.686;2023-01-05T03:23:54;18.00;62.30
64705;DHT22;51131;52.298;13.686;2023-01-05T03:26:40;18.00;61.90
64705;DHT22;51131;52.298;13.686;2023-01-05T03:29:26;18.00;62.00
64705;DHT22;51131;52.298;13.686;2023-01-05T03:32:20;18.00;62.10
64705;DHT22;51131;52.298;13.686;2023-01-05T03:35:10;18.00;62.20
64705;DHT22;51131;52.298;13.686;2023-01-05T03:37:56;18.00;62.10
64705;DHT22;51131;52.298;13.686;2023-01-05T03:40:28;18.00;62.30
64705;DHT22;51131;52.298;13.686;2023-01-05T03:42:56;18.00;62.30
64705;DHT22;51131;52.298;13.686;2023-01-05T03:45:23;18.00;62.20
64705;DHT22;51131;52.298;13.686;2023-01-05T03:47:50;18.00;62.10
64705;DHT22;51131;52.298;13.686;2023-01-05T03:50:17;19.00;63.20
64705;DHT22;51131;52.298;13.686;2023-01-05T03:52:44;18.00;62.10
64705;DHT22;51131;52.298;13.686;2023-01-05T03:55:10;18.00;62.10
64705;DHT22;51131;52.298;13.686;2023-01-05T03:57:37;18.00;62.10
64705;DHT22;51131;52.298;13.686;2023-01-05T04:00:04;18.00;62.20
64705;DHT22;51131;52.298;13.686;2023-01-05T04:02:31;18.00;62.30
64705;DHT22;51131;52.298;13.686;2023-01-05T04:04:58;18.10;62.20
64705;DHT22;51131;52.298;13.686;2023-01-05T04:07:24;18.10;62.30
64705;DHT22;51131;52.298;13.686;2023-01-05T04:09:51;18.10;62.30
64705;DHT22;51131;52.298;13.686;2023-01-05T04:12:18;18.00;62.00
64705;DHT22;51131;52.298;13.686;2023-01-05T04:14:44;18.10;62.20
64705;DHT22;51131;52.298;13.686;2023-01-05T04:17:11;18.00;62.10
64705;DHT22;51131;52.298;13.686;2023-01-05T04:19:37;18.20;62.30
64705;DHT22;51131;52.298;13.686;2023-01-05T04:22:04;18.00;62.20
64705;DHT22;51131;52.298;13.686;2023-01-05T04:24:30;18.00;62.20
64705;DHT22;51131;52.298;13.686;2023-01-05T04:26:57;18.00;62.30
64705;DHT22;51131;52.298;13.686;2023-01-05T04:29:24;18.00;62.10
64705;DHT22;51131;52.298;13.686;2023-01-05T04:31:50;18.30;62.40
64705;DHT22;51131;52.298;13.686;2023-01-05T04:34:17;18.00;62.20
64705;DHT22;51131;52.298;13.686;2023-01-05T04:36:43;18.00;62.10
64705;DHT22;51131;52.298;13.686;2023-01-05T04:39:13;18.00;62.30
64705;DHT22;51131;52.298;13.686;2023-01-05T04:41:40;18.00;62.10
64705;DHT22;51131;52.298;13.686;2023-01-05T04:44:06;18.10;62.20
64705;DHT22;51131;52.298;13.686;2023-01-05T04:46:33;18.10;62.20
64705;DHT22;51131;52.298;13.686;2023-01-05T04:48:59;18.00;62.20
64705;DHT22;51131;52.298;13.686;2023-01-05T04:51:26;18.00;62.10
64705;DHT22;51131;52.298;13.686;2023-01-05T04:53:53;18.50;62.70
64705;DHT22;51131;52.298;13.686;2023-01-05T04:56:19;18.10;63.00
64705;DHT22;51131;52.298;13.686;2023-01-05T04:58:46;19.20;63.30
64705;DHT22;51131;52.298;13.686;2023-01-05T05:01:12;18.10;62.30
64705;DHT22;51131;52.298;13.686;2023-01-05T05:03:39;18.10;62.30
64705;DHT22;51131;52.298;13.686;2023-01-05T05:06:06;18.10;62.30
64705;DHT22;51131;52.298;13.686;2023-01-05T05:08:33;18.10;62.30
64705;DHT22;51131;52.298;13.686;2023-01-05T05:10:59;18.10;62.60
64705;DHT22;51131;52.298;13.686;2023-01-05T05:13:26;18.10;62.40
64705;DHT22;51131;52.298;13.686;2023-01-05T05:15:53;18.10;62.30
64705;DHT22;51131;52.298;13.686;2023-01-05T05:18:19;18.10;62.40
64705;DHT22;51131;52.298;13.686;2023-01-05T05:20:48;18.10;62.40
64705;DHT22;51131;52.298;13.686;2023-01-05T05:23:16;18.80;63.00
64705;DHT22;51131;52.298;13.686;2023-01-05T05:25:42;18.20;62.50
64705;DHT22;51131;52.298;13.686;2023-01-05T05:28:09;18.10;62.40
64705;DHT22;51131;52.298;13.686;2023-01-05T05:30:36;18.10;62.50
64705;DHT22;51131;52.298;13.686;2023-01-05T05:33:03;18.10;62.30
64705;DHT22;51131;52.298;13.686;2023-01-05T05:35:30;18.10;62.50
64705;DHT22;51131;52.298;13.686;2023-01-05T05:37:56;18.10;62.60
64705;DHT22;51131;52.298;13.686;2023-01-05T05:40:23;18.10;62.40
64705;DHT22;51131;52.298;13.686;2023-01-05T05:42:51;18.10;62.40
64705;DHT22;51131;52.298;13.686;2023-01-05T05:45:18;18.10;62.40
64705;DHT22;51131;52.298;13.686;2023-01-05T05:47:44;18.10;62.40
64705;DHT22;51131;52.298;13.686;2023-01-05T05:50:11;18.10;62.30
64705;DHT22;51131;52.298;13.686;2023-01-05T05:52:38;18.10;62.30
64705;DHT22;51131;52.298;13.686;2023-01-05T05:55:04;18.10;62.50
64705;DHT22;51131;52.298;13.686;2023-01-05T05:57:31;18.10;62.40
64705;DHT22;51131;52.298;13.686;2023-01-05T05:59:58;18.90;63.20
64705;DHT22;51131;52.298;13.686;2023-01-05T06:02:24;18.10;62.30
64705;DHT22;51131;52.298;13.686;2023-01-05T06:04:51;18.10;62.40
64705;DHT22;51131;52.298;13.686;2023-01-05T06:07:18;19.10;63.40
64705;DHT22;51131;52.298;13.686;2023-01-05T06:09:44;18.80;63.10
64705;DHT22;51131;52.298;13.686;2023-01-05T06:12:11;18.10;62.40
64705;DHT22;51131;52.298;13.686;2023-01-05T06:14:38;18.20;62.60
64705;DHT22;51131;52.298;13.686;2023-01-05T06:17:04;19.00;63.50
64705;DHT22;51131;52.298;13.686;2023-01-05T06:19:31;18.40;62.80
64705;DHT22;51131;52.298;13.686;2023-01-05T06:21:58;18.50;62.70
64705;DHT22;51131;52.298;13.686;2023-01-05T06:24:24;19.00;63.20
64705;DHT22;51131;52.298;13.686;2023-01-05T06:26:51;18.10;62.30
64705;DHT22;51131;52.298;13.686;2023-01-05T06:29:18;18.10;62.30
64705;DHT22;51131;52.298;13.686;2023-01-05T06:31:44;18.10;62.30
64705;DHT22;51131;52.298;13.686;2023-01-05T06:34:11;18.10;62.30
64705;DHT22;51131;52.298;13.686;2023-01-05T06:36:38;18.10;62.30
64705;DHT22;51131;52.298;13.686;2023-01-05T06:39:04;18.10;62.30
64705;DHT22;51131;52.298;13.686;2023-01-05T06:41:31;18.10;62.30
64705;DHT22;51131;52.298;13.686;2023-01-05T06:44:00;18.10;62.40
64705;DHT22;51131;52.298;13.686;2023-01-05T06:46:27;18.10;62.50
64705;DHT22;51131;52.298;13.686;2023-01-05T06:48:53;18.20;62.60
64705;DHT22;51131;52.298;13.686;2023-01-05T06:51:20;18.10;62.60
64705;DHT22;51131;52.298;13.686;2023-01-05T06:53:46;18.10;62.50
64705;DHT22;51131;52.298;13.686;2023-01-05T06:56:13;18.50;62.90
64705;DHT22;51131;52.298;13.686;2023-01-05T06:58:40;18.10;62.70
64705;DHT22;51131;52.298;13.686;2023-01-05T07:01:06;18.80;63.30
64705;DHT22;51131;52.298;13.686;2023-01-05T07:03:33;18.60;63.00
64705;DHT22;51131;52.298;13.686;2023-01-05T07:06:00;18.10;62.60
64705;DHT22;51131;52.298;13.686;2023-01-05T07:08:27;18.10;62.60
64705;DHT22;51131;52.298;13.686;2023-01-05T07:10:53;18.10;62.70
64705;DHT22;51131;52.298;13.686;2023-01-05T07:13:20;18.10;62.70
64705;DHT22;51131;52.298;13.686;2023-01-05T07:15:47;18.10;62.70
64705;DHT22;51131;52.298;13.686;2023-01-05T07:18:13;18.10;62.80
64705;DHT22;51131;52.298;13.686;2023-01-05T07:20:40;18.10;62.70
64705;DHT22;51131;52.298;13.686;2023-01-05T07:23:07;18.60;63.10
64705;DHT22;51131;52.298;13.686;2023-01-05T07:25:33;19.30;63.80
64705;DHT22;51131;52.298;13.686;2023-01-05T07:28:00;18.50;63.10
64705;DHT22;51131;52.298;13.686;2023-01-05T07:30:27;18.20;62.90
64705;DHT22;51131;52.298;13.686;2023-01-05T07:32:57;19.00;63.40
64705;DHT22;51131;52.298;13.686;2023-01-05T07:35:24;18.10;62.70
64705;DHT22;51131;52.298;13.686;2023-01-05T07:37:51;18.90;63.40
64705;DHT22;51131;52.298;13.686;2023-01-05T07:40:18;18.50;62.90
64705;DHT22;51131;52.298;13.686;2023-01-05T07:42:48;18.60;62.90
64705;DHT22;51131;52.298;13.686;2023-01-05T07:45:15;18.70;63.40
64705;DHT22;51131;52.298;13.686;2023-01-05T07:47:41;18.20;63.00
64705;DHT22;51131;52.298;13.686;2023-01-05T07:50:08;18.30;63.60
64705;DHT22;51131;52.298;13.686;2023-01-05T07:52:35;18.50;63.80
64705;DHT22;51131;52.298;13.686;2023-01-05T07:55:02;19.40;63.90
64705;DHT22;51131;52.298;13.686;2023-01-05T07:57:28;18.50;62.70
64705;DHT22;51131;52.298;13.686;2023-01-05T07:59:55;19.60;63.50
64705;DHT22;51131;52.298;13.686;2023-01-05T08:02:22;19.70;63.40
64705;DHT22;51131;52.298;13.686;2023-01-05T08:04:48;19.80;63.30
64705;DHT22;51131;52.298;13.686;2023-01-05T08:07:15;18.80;62.30
64705;DHT22;51131;52.298;13.686;2023-01-05T08:09:42;18.90;65.40
64705;DHT22;51131;52.298;13.686;2023-01-05T08:12:27;18.40;63.60
64705;DHT22;51131;52.298;13.686;2023-01-05T08:14:55;18.60;65.00
64705;DHT22;51131;52.298;13.686;2023-01-05T08:17:22;18.60;64.70
64705;DHT22;51131;52.298;13.686;2023-01-05T08:19:49;18.80;68.30
64705;DHT22;51131;52.298;13.686;2023-01-05T08:22:15;18.60;68.00
64705;DHT22;51131;52.298;13.686;2023-01-05T08:24:42;18.80;68.00
64705;DHT22;51131;52.298;13.686;2023-01-05T08:27:08;19.80;67.80
64705;DHT22;51131;52.298;13.686;2023-01-05T08:29:35;18.50;65.60
64705;DHT22;51131;52.298;13.686;2023-01-05T08:32:02;18.50;65.60
64705;DHT22;51131;52.298;13.686;2023-01-05T08:34:29;18.50;65.20
64705;DHT22;51131;52.298;13.686;2023-01-05T08:37:00;18.50;66.00
64705;DHT22;51131;52.298;13.686;2023-01-05T08:39:27;18.50;64.80
64705;DHT22;51131;52.298;13.686;2023-01-05T08:41:53;18.40;64.30
64705;DHT22;51131;52.298;13.686;2023-01-05T08:44:27;18.40;64.20
64705;DHT22;51131;52.298;13.686;2023-01-05T08:46:54;18.50;64.50
64705;DHT22;51131;52.298;13.686;2023-01-05T08:49:21;18.40;64.00
64705;DHT22;51131;52.298;13.686;2023-01-05T08:51:47;18.40;63.60
64705;DHT22;51131;52.298;13.686;2023-01-05T08:54:14;18.30;63.60
64705;DHT22;51131;52.298;13.686;2023-01-05T08:56:41;18.30;63.40
64705;DHT22;51131;52.298;13.686;2023-01-05T08:59:12;18.30;63.10
64705;DHT22;51131;52.298;13.686;2023-01-05T09:01:39;18.30;63.50
64705;DHT22;51131;52.298;13.686;2023-01-05T09:04:06;18.90;64.10
64705;DHT22;51131;52.298;13.686;2023-01-05T09:06:33;18.30;63.10
64705;DHT22;51131;52.298;13.686;2023-01-05T09:09:00;18.90;63.90
64705;DHT22;51131;52.298;13.686;2023-01-05T09:11:27;18.30;63.10
64705;DHT22;51131;52.298;13.686;2023-01-05T09:13:54;18.30;63.10
64705;DHT22;51131;52.298;13.686;2023-01-05T09:16:23;18.40;63.90
64705;DHT22;51131;52.298;13.686;2023-01-05T09:19:10;18.40;63.50
64705;DHT22;51131;52.298;13.686;2023-01-05T09:21:37;18.40;63.50
64705;DHT22;51131;52.298;13.686;2023-01-05T09:24:07;18.30;63.10
64705;DHT22;51131;52.298;13.686;2023-01-05T09:26:33;18.30;63.10
64705;DHT22;51131;52.298;13.686;2023-01-05T09:29:00;18.30;63.10
64705;DHT22;51131;52.298;13.686;2023-01-05T09:31:27;18.30;63.60
64705;DHT22;51131;52.298;13.686;2023-01-05T09:33:55;18.40;63.20
64705;DHT22;51131;52.298;13.686;2023-01-05T09:36:21;19.00;64.10
64705;DHT22;51131;52.298;13.686;2023-01-05T09:38:50;18.50;63.90
64705;DHT22;51131;52.298;13.686;2023-01-05T09:41:31;18.70;63.40
64705;DHT22;51131;52.298;13.686;2023-01-05T09:44:01;18.60;62.70
64705;DHT22;51131;52.298;13.686;2023-01-05T09:46:38;18.60;62.50
64705;DHT22;51131;52.298;13.686;2023-01-05T09:49:10;18.50;62.30
64705;DHT22;51131;52.298;13.686;2023-01-05T09:51:38;18.50;62.40
64705;DHT22;51131;52.298;13.686;2023-01-05T09:54:05;18.50;62.50
64705;DHT22;51131;52.298;13.686;2023-01-05T09:56:34;18.50;62.80
64705;DHT22;51131;52.298;13.686;2023-01-05T09:59:31;18.70;63.10
64705;DHT22;51131;52.298;13.686;2023-01-05T10:02:00;18.80;63.20
64705;DHT22;51131;52.298;13.686;2023-01-05T10:04:27;18.80;63.10
64705;DHT22;51131;52.298;13.686;2023-01-05T10:06:59;18.50;62.80
64705;DHT22;51131;52.298;13.686;2023-01-05T10:09:28;18.50;62.80
64705;DHT22;51131;52.298;13.686;2023-01-05T10:14:55;18.30;64.20
64705;DHT22;51131;52.298;13.686;2023-01-05T10:17:22;18.20;65.40
64705;DHT22;51131;52.298;13.686;2023-01-05T10:20:17;18.20;65.00
64705;DHT22;51131;52.298;13.686;2023-01-05T10:22:52;18.30;64.20
64705;DHT22;51131;52.298;13.686;2023-01-05T10:28:18;18.30;64.70
64705;DHT22;51131;52.298;13.686;2023-01-05T10:33:31;18.30;64.60
64705;DHT22;51131;52.298;13.686;2023-01-05T10:42:49;18.40;66.30
64705;DHT22;51131;52.298;13.686;2023-01-05T10:47:16;18.30;65.40
64705;DHT22;51131;52.298;13.686;2023-01-05T10:49:45;18.20;65.00
64705;DHT22;51131;52.298;13.686;2023-01-05T10:52:13;19.20;65.70
64705;DHT22;51131;52.298;13.686;2023-01-05T10:54:45;19.20;65.90
64705;DHT22;51131;52.298;13.686;2023-01-05T11:02:39;18.20;64.90
64705;DHT22;51131;52.298;13.686;2023-01-05T11:10:39;18.20;65.10
64705;DHT22;51131;52.298;13.686;2023-01-05T11:13:17;18.20;65.40
64705;DHT22;51131;52.298;13.686;2023-01-05T11:16:27;18.20;65.60
64705;DHT22;51131;52.298;13.686;2023-01-05T11:21:26;18.20;65.80
64705;DHT22;51131;52.298;13.686;2023-01-05T11:23:56;18.20;65.40
64705;DHT22;51131;52.298;13.686;2023-01-05T11:26:25;18.40;65.80
64705;DHT22;51131;52.298;13.686;2023-01-05T11:28:59;18.20;68.10
64705;DHT22;51131;52.298;13.686;2023-01-05T11:31:36;18.20;66.30
64705;DHT22;51131;52.298;13.686;2023-01-05T11:34:13;18.20;67.00
64705;DHT22;51131;52.298;13.686;2023-01-05T11:36:40;18.30;69.00
64705;DHT22;51131;52.298;13.686;2023-01-05T11:39:14;18.50;66.00
64705;DHT22;51131;52.298;13.686;2023-01-05T11:41:42;18.40;66.30
64705;DHT22;51131;52.298;13.686;2023-01-05T11:44:13;18.30;66.70
64705;DHT22;51131;52.298;13.686;2023-01-05T11:46:43;18.20;66.10
64705;DHT22;51131;52.298;13.686;2023-01-05T11:49:10;19.00;66.70
64705;DHT22;51131;52.298;13.686;2023-01-05T11:51:37;18.90;67.10
64705;DHT22;51131;52.298;13.686;2023-01-05T11:54:05;18.30;65.90
64705;DHT22;51131;52.298;13.686;2023-01-05T11:56:51;18.30;66.70
64705;DHT22;51131;52.298;13.686;2023-01-05T11:59:31;18.30;65.70
64705;DHT22;51131;52.298;13.686;2023-01-05T12:02:01;19.40;67.60
64705;DHT22;51131;52.298;13.686;2023-01-05T12:04:40;19.30;68.00
64705;DHT22;51131;52.298;13.686;2023-01-05T12:15:17;18.70;66.90
64705;DHT22;51131;52.298;13.686;2023-01-05T12:22:49;18.70;66.70
64705;DHT22;51131;52.298;13.686;2023-01-05T12:27:54;18.30;66.40
64705;DHT22;51131;52.298;13.686;2023-01-05T12:30:38;19.40;67.10
64705;DHT22;51131;52.298;13.686;2023-01-05T12:36:17;19.30;66.80
64705;DHT22;51131;52.298;13.686;2023-01-05T12:49:18;18.20;66.40
64705;DHT22;51131;52.298;13.686;2023-01-05T12:51:49;19.40;67.60
64705;DHT22;51131;52.298;13.686;2023-01-05T12:54:26;18.40;66.90
64705;DHT22;51131;52.298;13.686;2023-01-05T12:56:56;18.20;66.20
64705;DHT22;51131;52.298;13.686;2023-01-05T12:59:27;18.20;66.10
64705;DHT22;51131;52.298;13.686;2023-01-05T13:07:08;18.20;66.60
64705;DHT22;51131;52.298;13.686;2023-01-05T13:09:36;18.50;66.10
64705;DHT22;51131;52.298;13.686;2023-01-05T13:12:05;19.30;66.90
64705;DHT22;51131;52.298;13.686;2023-01-05T13:14:33;18.20;66.70
64705;DHT22;51131;52.298;13.686;2023-01-05T13:17:02;18.20;66.40
64705;DHT22;51131;52.298;13.686;2023-01-05T13:19:32;18.20;66.10
64705;DHT22;51131;52.298;13.686;2023-01-05T13:22:02;18.20;65.90
64705;DHT22;51131;52.298;13.686;2023-01-05T13:24:31;18.20;67.10
64705;DHT22;51131;52.298;13.686;2023-01-05T13:27:00;18.20;65.90
64705;DHT22;51131;52.298;13.686;2023-01-05T13:29:32;18.20;65.80
64705;DHT22;51131;52.298;13.686;2023-01-05T13:32:11;18.20;65.80
64705;DHT22;51131;52.298;13.686;2023-01-05T13:53:03;18.30;65.80
64705;DHT22;51131;52.298;13.686;2023-01-05T13:55:30;18.30;65.40
64705;DHT22;51131;52.298;13.686;2023-01-05T13:57:58;18.30;68.30
64705;DHT22;51131;52.298;13.686;2023-01-05T14:00:28;19.50;68.70
64705;DHT22;51131;52.298;13.686;2023-01-05T14:02:57;18.40;68.70
64705;DHT22;51131;52.298;13.686;2023-01-05T14:05:27;18.20;67.30
64705;DHT22;51131;52.298;13.686;2023-01-05T14:07:55;18.20;66.50
64705;DHT22;51131;52.298;13.686;2023-01-05T14:10:28;18.50;66.40
64705;DHT22;51131;52.298;13.686;2023-01-05T14:12:55;18.20;65.70
64705;DHT22;51131;52.298;13.686;2023-01-05T14:17:59;18.20;66.50
64705;DHT22;51131;52.298;13.686;2023-01-05T14:22:56;18.70;66.20
64705;DHT22;51131;52.298;13.686;2023-01-05T14:30:50;18.20;66.80
64705;DHT22;51131;52.298;13.686;2023-01-05T14:33:18;18.20;66.10
64705;DHT22;51131;52.298;13.686;2023-01-05T14:35:45;18.80;66.80
64705;DHT22;51131;52.298;13.686;2023-01-05T14:40:40;18.20;66.00
64705;DHT22;51131;52.298;13.686;2023-01-05T14:46:11;18.20;66.40
64705;DHT22;51131;52.298;13.686;2023-01-05T14:48:41;18.20;66.30
64705;DHT22;51131;52.298;13.686;2023-01-05T14:51:19;18.20;67.10
64705;DHT22;51131;52.298;13.686;2023-01-05T14:53:47;18.10;66.30
64705;DHT22;51131;52.298;13.686;2023-01-05T14:56:17;18.20;66.50
64705;DHT22;51131;52.298;13.686;2023-01-05T15:03:46;18.10;65.80
64705;DHT22;51131;52.298;13.686;2023-01-05T15:09:01;18.10;66.30
64705;DHT22;51131;52.298;13.686;2023-01-05T15:11:39;18.20;66.20
64705;DHT22;51131;52.298;13.686;2023-01-05T15:14:21;18.20;66.80
64705;DHT22;51131;52.298;13.686;2023-01-05T15:19:49;18.20;66.10
64705;DHT22;51131;52.298;13.686;2023-01-05T15:33:27;18.20;66.00
64705;DHT22;51131;52.298;13.686;2023-01-05T15:35:56;18.20;67.00
64705;DHT22;51131;52.298;13.686;2023-01-05T15:38:27;18.30;66.50
64705;DHT22;51131;52.298;13.686;2023-01-05T15:40:58;18.10;66.50
64705;DHT22;51131;52.298;13.686;2023-01-05T15:43:25;18.20;66.20
64705;DHT22;51131;52.298;13.686;2023-01-05T15:45:53;18.10;66.60
64705;DHT22;51131;52.298;13.686;2023-01-05T15:48:25;18.10;66.60
64705;DHT22;51131;52.298;13.686;2023-01-05T15:50:53;18.10;66.80
64705;DHT22;51131;52.298;13.686;2023-01-05T15:53:25;18.20;66.30
64705;DHT22;51131;52.298;13.686;2023-01-05T15:55:52;18.20;65.80
64705;DHT22;51131;52.298;13.686;2023-01-05T15:58:19;18.20;66.90
64705;DHT22;51131;52.298;13.686;2023-01-05T16:01:00;18.10;66.60
64705;DHT22;51131;52.298;13.686;2023-01-05T16:03:28;18.10;67.70
64705;DHT22;51131;52.298;13.686;2023-01-05T16:05:59;18.10;66.80
64705;DHT22;51131;52.298;13.686;2023-01-05T16:08:26;18.10;66.30
64705;DHT22;51131;52.298;13.686;2023-01-05T16:10:53;18.20;67.40
64705;DHT22;51131;52.298;13.686;2023-01-05T16:14:06;18.20;66.60
64705;DHT22;51131;52.298;13.686;2023-01-05T16:16:15;18.20;66.40
64705;DHT22;51131;52.298;13.686;2023-01-05T16:21:53;18.10;66.60
64705;DHT22;51131;52.298;13.686;2023-01-05T16:24:29;18.60;66.80
64705;DHT22;51131;52.298;13.686;2023-01-05T16:27:00;18.10;66.60
64705;DHT22;51131;52.298;13.686;2023-01-05T16:31:57;18.10;66.60
64705;DHT22;51131;52.298;13.686;2023-01-05T16:34:23;18.30;66.30
64705;DHT22;51131;52.298;13.686;2023-01-05T16:37:13;18.10;66.20
64705;DHT22;51131;52.298;13.686;2023-01-05T16:39:41;18.10;66.20
64705;DHT22;51131;52.298;13.686;2023-01-05T16:42:18;18.50;66.60
64705;DHT22;51131;52.298;13.686;2023-01-05T16:45:08;18.10;66.00
64705;DHT22;51131;52.298;13.686;2023-01-05T16:47:40;18.10;66.00
64705;DHT22;51131;52.298;13.686;2023-01-05T16:53:05;18.10;66.30
64705;DHT22;51131;52.298;13.686;2023-01-05T16:55:35;17.60;65.50
64705;DHT22;51131;52.298;13.686;2023-01-05T17:00:48;18.10;66.10
64705;DHT22;51131;52.298;13.686;2023-01-05T17:05:48;18.10;66.60
64705;DHT22;51131;52.298;13.686;2023-01-05T17:08:20;18.60;66.90
64705;DHT22;51131;52.298;13.686;2023-01-05T17:10:47;18.10;66.80
64705;DHT22;51131;52.298;13.686;2023-01-05T17:15:43;18.80;66.80
64705;DHT22;51131;52.298;13.686;2023-01-05T17:20:40;18.00;66.40
64705;DHT22;51131;52.298;13.686;2023-01-05T17:23:15;19.30;67.20
64705;DHT22;51131;52.298;13.686;2023-01-05T17:25:43;18.00;66.40
64705;DHT22;51131;52.298;13.686;2023-01-05T17:28:10;18.00;66.40
64705;DHT22;51131;52.298;13.686;2023-01-05T17:30:37;18.00;66.10
64705;DHT22;51131;52.298;13.686;2023-01-05T17:33:03;19.20;67.00
64705;DHT22;51131;52.298;13.686;2023-01-05T17:35:31;18.00;66.00
64705;DHT22;51131;52.298;13.686;2023-01-05T17:37:58;18.00;65.90
64705;DHT22;51131;52.298;13.686;2023-01-05T17:40:25;19.10;66.80
64705;DHT22;51131;52.298;13.686;2023-01-05T17:42:52;18.70;66.80
64705;DHT22;51131;52.298;13.686;2023-01-05T17:45:20;18.00;66.30
64705;DHT22;51131;52.298;13.686;2023-01-05T17:47:46;18.00;66.10
64705;DHT22;51131;52.298;13.686;2023-01-05T17:50:14;18.00;66.20
64705;DHT22;51131;52.298;13.686;2023-01-05T17:52:41;18.00;66.10
64705;DHT22;51131;52.298;13.686;2023-01-05T17:55:08;18.10;66.60
64705;DHT22;51131;52.298;13.686;2023-01-05T17:57:35;18.00;66.70
64705;DHT22;51131;52.298;13.686;2023-01-05T18:00:03;18.90;67.20
64705;DHT22;51131;52.298;13.686;2023-01-05T18:02:31;18.00;66.00
64705;DHT22;51131;52.298;13.686;2023-01-05T18:04:58;18.00;66.30
64705;DHT22;51131;52.298;13.686;2023-01-05T18:07:24;18.00;66.00
64705;DHT22;51131;52.298;13.686;2023-01-05T18:09:51;18.90;66.80